createdAt,value
2023-10-03T00:01:32.220Z,19.45
2023-10-03T00:03:33.865Z,24.00
2023-10-03T00:05:36.645Z,23.05
2023-10-03T00:07:38.852Z,19.95
2023-10-03T00:09:40.545Z,21.98
2023-10-03T00:11:42.098Z,23.50
2023-10-03T00:13:43.596Z,24.33
2023-10-03T00:15:46.088Z,20.05
2023-10-03T00:17:48.189Z,22.38
2023-10-03T00:19:49.729Z,22.73
2023-10-03T00:21:51.172Z,22.13
2023-10-03T00:23:52.717Z,22.92
2023-10-03T00:25:57.291Z,22.10
2023-10-03T00:28:01.909Z,22.77
2023-10-03T00:30:04.124Z,23.55
2023-10-03T00:32:07.481Z,23.33
2023-10-03T00:34:08.906Z,22.58
2023-10-03T00:36:25.229Z,22.75
2023-10-03T00:38:26.736Z,24.77
2023-10-03T00:40:29.193Z,24.88
2023-10-03T00:42:32.377Z,24.48
2023-10-03T00:44:33.903Z,26.15
2023-10-03T00:46:35.390Z,22.88
2023-10-03T00:48:36.908Z,20.60
2023-10-03T00:50:39.707Z,28.48
2023-10-03T00:52:43.379Z,22.98
2023-10-03T00:54:45.223Z,23.08
2023-10-03T00:56:48.502Z,24.63
2023-10-03T00:58:52.499Z,22.77
2023-10-03T01:00:56.067Z,22.83
2023-10-03T01:02:57.737Z,21.85
2023-10-03T01:04:59.329Z,24.58
2023-10-03T01:07:01.534Z,22.65
2023-10-03T01:09:04.330Z,21.65
2023-10-03T01:11:17.003Z,25.17
2023-10-03T01:13:21.162Z,22.25
2023-10-03T01:15:23.297Z,23.88
2023-10-03T01:17:27.565Z,20.10
2023-10-03T01:19:31.807Z,21.58
2023-10-03T01:21:33.317Z,22.35
2023-10-03T01:23:41.025Z,24.92
2023-10-03T01:25:45.644Z,21.92
2023-10-03T01:27:47.489Z,23.90
2023-10-03T01:29:49.098Z,21.83
2023-10-03T01:31:54.173Z,25.88
2023-10-03T01:33:55.679Z,23.05
2023-10-03T01:35:57.398Z,24.70
2023-10-03T01:37:59.001Z,21.60
2023-10-03T01:40:00.664Z,21.73
2023-10-03T01:42:02.124Z,24.70
2023-10-03T01:44:03.847Z,22.60
2023-10-03T01:46:05.349Z,23.88
2023-10-03T01:48:08.547Z,21.80
2023-10-03T01:50:12.524Z,22.95
2023-10-03T01:52:13.991Z,20.75
2023-10-03T01:54:16.905Z,22.63
2023-10-03T01:56:18.323Z,22.52
2023-10-03T01:58:24.807Z,22.45
2023-10-03T02:00:26.510Z,20.83
2023-10-03T02:02:28.102Z,20.77
2023-10-03T02:04:30.132Z,22.23
2023-10-03T02:06:31.868Z,22.80
2023-10-03T02:08:35.030Z,23.85
2023-10-03T02:10:36.620Z,22.33
2023-10-03T02:12:38.139Z,21.40
2023-10-03T02:14:40.699Z,22.73
2023-10-03T02:16:47.382Z,21.13
2023-10-03T02:21:01.012Z,22.00
2023-10-03T02:23:06.274Z,23.92
2023-10-03T02:25:10.092Z,20.95
2023-10-03T02:27:12.201Z,22.10
2023-10-03T02:29:14.163Z,22.80
2023-10-03T02:31:16.292Z,21.85
2023-10-03T02:33:19.217Z,22.67
2023-10-03T02:35:25.614Z,20.50
2023-10-03T02:37:27.091Z,20.35
2023-10-03T02:39:36.433Z,22.42
2023-10-03T02:41:39.238Z,21.80
2023-10-03T02:43:43.598Z,20.17
2023-10-03T02:45:45.509Z,22.52
2023-10-03T02:47:47.158Z,21.90
2023-10-03T02:49:50.634Z,22.25
2023-10-03T02:51:52.083Z,22.27
2023-10-03T02:53:53.527Z,22.17
2023-10-03T02:55:55.399Z,22.95
2023-10-03T02:57:56.894Z,21.65
2023-10-03T02:59:58.905Z,22.00
2023-10-03T03:02:00.389Z,20.00
2023-10-03T03:04:02.819Z,20.17
2023-10-03T03:06:14.973Z,22.48
2023-10-03T03:08:19.643Z,21.33
2023-10-03T03:10:22.235Z,22.45
2023-10-03T03:12:23.649Z,21.90
2023-10-03T03:14:25.776Z,18.88
2023-10-03T03:16:27.298Z,20.40
2023-10-03T03:18:33.221Z,22.58
2023-10-03T03:20:39.459Z,21.65
2023-10-03T03:22:40.906Z,22.08
2023-10-03T03:24:42.936Z,19.73
2023-10-03T03:26:48.807Z,20.02
2023-10-03T03:28:51.783Z,21.75
2023-10-03T03:30:57.408Z,23.65
2023-10-03T03:33:01.991Z,18.70
2023-10-03T03:35:04.188Z,19.27
2023-10-03T03:37:24.195Z,19.45
2023-10-03T03:39:28.018Z,20.55
2023-10-03T03:41:30.265Z,18.23
2023-10-03T03:43:32.743Z,20.52
2023-10-03T03:45:35.011Z,21.27
2023-10-03T03:47:36.994Z,17.27
2023-10-03T03:49:38.539Z,18.30
2023-10-03T03:51:41.142Z,20.52
2023-10-03T03:53:43.550Z,17.73
2023-10-03T03:55:45.187Z,23.30
2023-10-03T03:57:46.842Z,18.52
2023-10-03T03:59:48.670Z,20.20
2023-10-03T04:01:51.452Z,18.35
2023-10-03T04:03:56.869Z,19.27
2023-10-03T04:05:58.665Z,19.38
2023-10-03T04:08:00.590Z,19.02
2023-10-03T04:10:02.657Z,18.27
2023-10-03T04:12:04.721Z,18.85
2023-10-03T04:14:07.970Z,19.05
2023-10-03T04:16:12.891Z,20.20
2023-10-03T04:18:17.207Z,17.75
2023-10-03T04:20:36.688Z,16.33
2023-10-03T04:22:38.143Z,19.85
2023-10-03T04:24:39.570Z,17.25
2023-10-03T04:26:44.010Z,17.25
2023-10-03T04:28:45.966Z,19.65
2023-10-03T04:30:49.065Z,19.23
2023-10-03T04:32:50.695Z,17.63
2023-10-03T04:34:52.382Z,17.98
2023-10-03T04:36:53.904Z,16.80
2023-10-03T04:38:55.484Z,18.70
2023-10-03T04:40:57.083Z,17.77
2023-10-03T04:42:59.184Z,17.55
2023-10-03T04:45:00.773Z,15.95
2023-10-03T04:47:04.642Z,19.35
2023-10-03T04:49:08.416Z,19.27
2023-10-03T04:51:15.355Z,15.20
2023-10-03T04:53:16.942Z,16.55
2023-10-03T04:55:19.800Z,15.35
2023-10-03T04:57:21.273Z,16.55
2023-10-03T04:59:22.924Z,17.55
2023-10-03T05:01:26.712Z,15.88
2023-10-03T05:03:29.685Z,17.75
2023-10-03T05:05:31.869Z,16.90
2023-10-03T05:07:33.548Z,14.50
2023-10-03T05:09:34.973Z,14.82
2023-10-03T05:11:36.486Z,22.20
2023-10-03T05:13:39.324Z,17.33
2023-10-03T05:15:40.945Z,19.25
2023-10-03T05:17:44.823Z,19.67
2023-10-03T05:19:46.476Z,16.48
2023-10-03T05:21:48.853Z,17.30
2023-10-03T05:23:50.423Z,17.10
2023-10-03T05:25:52.201Z,19.00
2023-10-03T05:27:54.477Z,24.38
2023-10-03T05:30:00.590Z,15.00
2023-10-03T05:32:02.326Z,17.63
2023-10-03T05:34:05.113Z,16.60
2023-10-03T05:36:06.791Z,17.52
2023-10-03T05:38:11.812Z,16.20
2023-10-03T05:40:13.621Z,16.15
2023-10-03T05:42:18.576Z,18.85
2023-10-03T05:44:22.247Z,16.95
2023-10-03T05:46:23.893Z,17.17
2023-10-03T05:48:26.692Z,15.55
2023-10-03T05:50:28.908Z,18.85
2023-10-03T05:52:30.425Z,19.65
2023-10-03T05:54:32.109Z,16.63
2023-10-03T05:56:33.695Z,19.73
2023-10-03T05:58:35.375Z,13.57
2023-10-03T06:00:37.245Z,13.75
2023-10-03T06:02:40.623Z,17.75
2023-10-03T06:04:42.268Z,16.55
2023-10-03T06:06:44.919Z,19.15
2023-10-03T06:08:50.069Z,17.80
2023-10-03T06:10:52.090Z,17.88
2023-10-03T06:12:55.644Z,16.80
2023-10-03T06:14:57.183Z,19.58
2023-10-03T06:16:58.799Z,17.08
2023-10-03T06:19:00.408Z,16.48
2023-10-03T06:21:01.935Z,17.50
2023-10-03T06:23:05.340Z,17.58
2023-10-03T06:25:08.496Z,15.60
2023-10-03T06:27:12.284Z,18.15
2023-10-03T06:29:15.991Z,18.60
2023-10-03T06:31:21.754Z,15.13
2023-10-03T06:33:23.386Z,18.42
2023-10-03T06:35:24.946Z,14.73
2023-10-03T06:37:26.529Z,14.00
2023-10-03T06:39:28.154Z,17.10
2023-10-03T06:41:29.586Z,19.27
2023-10-03T06:43:32.225Z,17.33
2023-10-03T06:45:33.649Z,19.27
2023-10-03T06:47:36.280Z,16.40
2023-10-03T06:49:37.949Z,15.93
2023-10-03T06:51:39.429Z,17.67
2023-10-03T06:53:48.286Z,13.38
2023-10-03T06:55:51.077Z,16.95
2023-10-03T06:57:53.306Z,12.27
2023-10-03T06:59:55.763Z,16.50
2023-10-03T07:01:57.305Z,15.48
2023-10-03T07:03:59.449Z,16.67
2023-10-03T07:06:01.124Z,17.25
2023-10-03T07:08:04.640Z,19.42
2023-10-03T07:10:08.461Z,14.70
2023-10-03T07:12:09.986Z,13.48
2023-10-03T07:14:15.404Z,13.98
2023-10-03T07:16:17.489Z,14.18
2023-10-03T07:18:19.395Z,13.85
2023-10-03T07:20:21.357Z,11.80
2023-10-03T07:22:22.907Z,13.82
2023-10-03T07:24:29.615Z,15.98
2023-10-03T07:26:31.200Z,11.95
2023-10-03T07:28:33.271Z,17.38
2023-10-03T07:30:35.108Z,11.52
2023-10-03T07:32:36.786Z,13.80
2023-10-03T07:34:43.501Z,14.48
2023-10-03T07:36:46.424Z,13.65
2023-10-03T07:38:48.043Z,15.52
2023-10-03T07:40:49.647Z,11.82
2023-10-03T07:42:51.177Z,14.27
2023-10-03T07:44:53.489Z,14.40
2023-10-03T07:46:54.946Z,14.38
2023-10-03T07:48:56.507Z,12.95
2023-10-03T07:50:58.162Z,10.63
2023-10-03T07:52:59.791Z,10.18
2023-10-03T07:55:01.775Z,10.02
2023-10-03T07:57:07.088Z,10.77
2023-10-03T07:59:08.792Z,11.68
2023-10-03T08:01:10.327Z,9.55
2023-10-03T08:03:13.212Z,9.98
2023-10-03T08:05:14.920Z,11.88
2023-10-03T08:07:23.301Z,11.20
2023-10-03T08:09:26.284Z,9.90
2023-10-03T08:11:31.336Z,10.18
2023-10-03T08:13:32.839Z,9.77
2023-10-03T08:15:34.318Z,11.35
2023-10-03T08:17:37.260Z,12.02
2023-10-03T08:19:41.472Z,10.30
2023-10-03T08:21:45.169Z,8.77
2023-10-03T08:23:52.709Z,10.10
2023-10-03T08:26:02.411Z,11.73
2023-10-03T08:28:10.979Z,10.35
2023-10-03T08:30:27.121Z,10.27
2023-10-03T08:32:29.140Z,11.25
2023-10-03T08:34:31.644Z,11.02
2023-10-03T08:36:39.072Z,11.35
2023-10-03T08:38:44.685Z,8.60
2023-10-03T08:40:50.991Z,7.32
2023-10-03T08:42:54.384Z,9.10
2023-10-03T08:45:00.177Z,12.05
2023-10-03T08:47:03.084Z,11.27
2023-10-03T08:49:09.920Z,10.65
2023-10-03T08:51:18.230Z,7.43
2023-10-03T08:53:28.743Z,7.95
2023-10-03T08:55:32.283Z,8.18
2023-10-03T08:57:34.023Z,8.68
2023-10-03T08:59:35.474Z,11.88
2023-10-03T09:01:47.895Z,9.32
2023-10-03T09:03:59.677Z,7.55
2023-10-03T09:06:02.004Z,8.90
2023-10-03T09:08:09.471Z,5.90
2023-10-03T09:10:23.658Z,8.13
2023-10-03T09:12:27.010Z,8.13
2023-10-03T09:14:29.159Z,9.00
2023-10-03T09:16:30.739Z,7.32
2023-10-03T09:18:41.993Z,9.20
2023-10-03T09:20:44.025Z,7.93
2023-10-03T09:22:48.098Z,5.43
2023-10-03T09:24:49.782Z,11.20
2023-10-03T09:27:03.355Z,6.00
2023-10-03T09:29:10.577Z,7.97
2023-10-03T09:31:12.162Z,6.38
2023-10-03T09:33:17.887Z,8.15
2023-10-03T09:35:19.587Z,7.80
2023-10-03T09:37:21.201Z,6.28
2023-10-03T09:39:22.753Z,8.52
2023-10-03T09:41:25.668Z,5.07
2023-10-03T09:43:30.582Z,6.45
2023-10-03T09:45:32.623Z,8.32
2023-10-03T09:47:39.068Z,7.03
2023-10-03T09:49:41.868Z,8.30
2023-10-03T09:51:52.802Z,7.65
2023-10-03T09:53:58.394Z,6.28
2023-10-03T09:56:02.095Z,9.55
2023-10-03T09:58:05.706Z,10.02
2023-10-03T10:00:24.676Z,9.10
2023-10-03T10:02:37.065Z,8.82
2023-10-03T10:04:38.741Z,7.80
2023-10-03T10:06:52.162Z,7.63
2023-10-03T10:09:14.306Z,8.30
2023-10-03T10:11:16.334Z,7.68
2023-10-03T10:13:23.557Z,5.45
2023-10-03T10:15:28.259Z,7.18
2023-10-03T10:17:46.438Z,6.57
2023-10-03T10:20:14.306Z,8.45
2023-10-03T10:22:15.874Z,6.50
2023-10-03T10:24:17.783Z,9.45
2023-10-03T10:26:34.107Z,5.45
2023-10-03T10:28:38.756Z,9.52
2023-10-03T10:30:44.125Z,8.38
2023-10-03T10:33:22.083Z,7.30
2023-10-03T10:35:57.827Z,8.20
2023-10-03T10:37:59.801Z,6.10
2023-10-03T10:40:33.951Z,5.97
2023-10-03T10:42:56.546Z,7.35
2023-10-03T10:45:03.962Z,7.63
2023-10-03T10:47:06.895Z,7.60
2023-10-03T10:49:38.394Z,8.05
2023-10-03T10:51:39.889Z,8.02
2023-10-03T10:53:46.015Z,7.60
2023-10-03T10:55:47.676Z,7.78
2023-10-03T10:58:09.587Z,8.50
2023-10-03T11:00:18.592Z,8.57
2023-10-03T11:02:29.783Z,7.45
2023-10-03T11:04:35.946Z,8.50
2023-10-03T11:06:37.538Z,6.55
2023-10-03T11:08:47.316Z,10.38
2023-10-03T11:10:56.130Z,9.98
2023-10-03T11:13:04.964Z,8.07
2023-10-03T11:15:11.953Z,6.63
2023-10-03T11:17:13.456Z,6.47
2023-10-03T11:19:15.019Z,7.75
2023-10-03T11:21:17.380Z,6.20
2023-10-03T11:23:19.483Z,6.43
2023-10-03T11:25:21.304Z,8.32
2023-10-03T11:27:30.579Z,8.48
2023-10-03T11:29:47.969Z,9.82
2023-10-03T11:31:49.615Z,9.30
2023-10-03T11:33:51.160Z,8.23
2023-10-03T11:35:53.926Z,8.80
2023-10-03T11:37:55.538Z,8.07
2023-10-03T11:40:08.566Z,10.10
2023-10-03T11:42:25.608Z,10.23
2023-10-03T11:44:28.305Z,10.63
2023-10-03T11:46:39.358Z,10.85
2023-10-03T11:48:44.893Z,11.13
2023-10-03T11:50:47.335Z,14.30
2023-10-03T11:52:50.014Z,7.90
2023-10-03T11:54:51.494Z,9.70
2023-10-03T11:56:53.041Z,8.15
2023-10-03T11:58:55.371Z,7.75
2023-10-03T12:00:57.337Z,8.50
2023-10-03T12:02:59.347Z,6.75
2023-10-03T12:05:01.225Z,8.00
2023-10-03T12:07:02.689Z,7.45
2023-10-03T12:09:05.067Z,7.65
2023-10-03T12:11:07.515Z,6.63
2023-10-03T12:13:10.852Z,5.65
2023-10-03T12:15:13.780Z,4.93
2023-10-03T12:17:15.280Z,4.72
2023-10-03T12:19:17.002Z,4.75
2023-10-03T12:21:18.651Z,6.07
2023-10-03T12:23:20.180Z,3.67
2023-10-03T12:25:24.833Z,5.00
2023-10-03T12:27:27.572Z,3.40
2023-10-03T12:29:32.955Z,6.40
2023-10-03T12:31:34.882Z,2.97
2023-10-03T12:33:36.539Z,4.63
2023-10-03T12:35:38.117Z,1.83
2023-10-03T12:37:41.647Z,3.05
2023-10-03T12:39:43.208Z,3.33
2023-10-03T12:41:47.901Z,6.28
2023-10-03T12:43:49.693Z,4.40
2023-10-03T12:45:51.281Z,3.42
2023-10-03T12:47:54.870Z,3.28
2023-10-03T12:49:58.797Z,2.90
2023-10-03T12:52:01.216Z,2.30
2023-10-03T12:54:05.730Z,3.67
2023-10-03T12:56:10.013Z,4.65
2023-10-03T12:58:13.428Z,4.70
2023-10-03T13:00:21.400Z,4.95
2023-10-03T13:02:23.892Z,6.00
2023-10-03T13:04:28.946Z,2.75
2023-10-03T13:06:31.726Z,5.72
2023-10-03T13:08:33.171Z,4.85
2023-10-03T13:10:35.282Z,3.17
2023-10-03T13:12:36.758Z,4.35
2023-10-03T13:14:38.235Z,3.17
2023-10-03T13:16:40.164Z,4.53
2023-10-03T13:18:41.777Z,2.22
2023-10-03T13:20:44.172Z,3.88
2023-10-03T13:22:48.422Z,1.58
2023-10-03T13:24:50.164Z,2.67
2023-10-03T13:26:54.187Z,2.53
2023-10-03T13:28:55.699Z,2.72
2023-10-03T13:30:57.518Z,2.42
2023-10-03T13:33:00.028Z,2.13
2023-10-03T13:35:04.392Z,4.25
2023-10-03T13:37:06.844Z,4.10
2023-10-03T13:39:09.253Z,2.47
2023-10-03T13:41:11.762Z,3.40
2023-10-03T13:43:20.081Z,2.40
2023-10-03T13:45:22.369Z,1.35
2023-10-03T13:47:24.724Z,3.60
2023-10-03T13:49:26.528Z,2.50
2023-10-03T13:51:30.584Z,1.17
2023-10-03T13:53:32.606Z,2.95
2023-10-03T13:55:34.483Z,2.17
2023-10-03T13:57:41.344Z,3.08
2023-10-03T13:59:45.549Z,2.10
2023-10-03T14:01:47.117Z,4.10
2023-10-03T14:03:48.691Z,2.40
2023-10-03T14:05:50.145Z,1.52
2023-10-03T14:07:51.944Z,2.35
2023-10-03T14:09:54.746Z,1.73
2023-10-03T14:11:57.870Z,1.63
2023-10-03T14:13:59.366Z,2.00
2023-10-03T14:16:00.813Z,3.60
2023-10-03T14:18:02.505Z,4.90
2023-10-03T14:20:06.637Z,2.17
2023-10-03T14:22:08.074Z,1.42
2023-10-03T14:24:10.484Z,2.58
2023-10-03T14:26:12.069Z,2.22
2023-10-03T14:28:13.565Z,1.17
2023-10-03T14:30:15.219Z,0.63
2023-10-03T14:32:16.922Z,1.75
2023-10-03T14:34:18.668Z,2.22
2023-10-03T14:36:20.138Z,2.28
2023-10-03T14:38:21.733Z,0.50
2023-10-03T14:40:23.205Z,0.98
2023-10-03T14:42:24.899Z,1.58
2023-10-03T14:44:26.388Z,2.47
2023-10-03T14:46:28.782Z,0.98
2023-10-03T14:48:30.346Z,2.47
2023-10-03T14:50:33.231Z,2.15
2023-10-03T14:52:35.290Z,1.77
2023-10-03T14:54:36.807Z,1.88
2023-10-03T14:56:39.253Z,2.30
2023-10-03T14:58:40.709Z,3.65
2023-10-03T15:00:43.198Z,1.08
2023-10-03T15:02:45.614Z,3.47
2023-10-03T15:04:47.192Z,1.60
2023-10-03T15:06:48.807Z,1.35
2023-10-03T15:08:50.429Z,3.88
2023-10-03T15:11:02.711Z,1.50
2023-10-03T15:13:05.378Z,4.72
2023-10-03T15:15:07.401Z,1.38
2023-10-03T15:17:11.922Z,1.95
2023-10-03T15:19:13.837Z,1.25
2023-10-03T15:21:16.803Z,2.20
2023-10-03T15:23:18.677Z,3.20
2023-10-03T15:25:20.315Z,3.92
2023-10-03T15:27:22.454Z,2.28
2023-10-03T15:29:24.204Z,2.92
2023-10-03T15:31:26.348Z,5.00
2023-10-03T15:33:28.531Z,2.42
2023-10-03T15:35:30.043Z,2.67
2023-10-03T15:37:32.096Z,5.32
2023-10-03T15:39:33.554Z,5.35
2023-10-03T15:41:37.045Z,4.13
2023-10-03T15:43:38.497Z,4.63
2023-10-03T15:45:40.561Z,5.43
2023-10-03T15:47:42.585Z,5.50
2023-10-03T15:49:44.550Z,5.20
2023-10-03T15:51:48.377Z,8.95
2023-10-03T15:53:50.094Z,3.90
2023-10-03T15:55:51.611Z,4.60
2023-10-03T15:57:53.139Z,4.63
2023-10-03T15:59:54.720Z,5.68
2023-10-03T16:01:56.974Z,4.07
2023-10-03T16:03:58.752Z,6.75
2023-10-03T16:06:00.399Z,3.75
2023-10-03T16:08:02.960Z,3.85
2023-10-03T16:10:05.359Z,4.07
2023-10-03T16:12:07.631Z,4.82
2023-10-03T16:14:09.136Z,5.07
2023-10-03T16:16:11.151Z,7.60
2023-10-03T16:18:12.755Z,5.50
2023-10-03T16:20:17.273Z,3.95
2023-10-03T16:22:18.765Z,4.38
2023-10-03T16:24:22.621Z,3.40
2023-10-03T16:26:24.595Z,5.57
2023-10-03T16:28:26.127Z,5.22
2023-10-03T16:30:27.733Z,6.55
2023-10-03T16:32:29.197Z,4.70
2023-10-03T16:34:31.155Z,5.32
2023-10-03T16:36:32.600Z,6.07
2023-10-03T16:38:34.873Z,5.43
2023-10-03T16:40:36.357Z,5.68
2023-10-03T16:42:39.193Z,4.38
2023-10-03T16:44:40.790Z,5.15
2023-10-03T16:46:42.319Z,4.57
2023-10-03T16:48:44.433Z,5.45
2023-10-03T16:50:46.032Z,5.25
2023-10-03T16:52:48.442Z,6.03
2023-10-03T16:54:49.874Z,7.40
2023-10-03T16:56:53.303Z,4.97
2023-10-03T16:58:54.752Z,5.72
2023-10-03T17:00:56.233Z,5.80
2023-10-03T17:02:57.884Z,4.07
2023-10-03T17:04:59.509Z,6.13
2023-10-03T17:07:00.959Z,5.05
2023-10-03T17:09:04.306Z,4.70
2023-10-03T17:11:05.943Z,5.72
2023-10-03T17:13:07.714Z,6.43
2023-10-03T17:15:13.074Z,3.42
2023-10-03T17:17:14.532Z,4.55
2023-10-03T17:19:16.232Z,6.68
2023-10-03T17:21:21.713Z,5.75
2023-10-03T17:23:23.308Z,5.20
2023-10-03T17:25:25.571Z,4.43
2023-10-03T17:27:26.984Z,4.85
2023-10-03T17:29:30.269Z,7.57
2023-10-03T17:31:31.679Z,5.25
2023-10-03T17:33:33.322Z,5.15
2023-10-03T17:35:34.962Z,5.28
2023-10-03T17:37:45.418Z,7.70
2023-10-03T17:39:47.055Z,9.40
2023-10-03T17:41:49.333Z,5.43
2023-10-03T17:43:50.802Z,5.40
2023-10-03T17:45:52.326Z,7.50
2023-10-03T17:47:53.910Z,6.00
2023-10-03T17:49:57.328Z,7.15
2023-10-03T17:51:58.771Z,6.28
2023-10-03T17:54:00.325Z,6.13
2023-10-03T17:56:03.442Z,5.15
2023-10-03T17:58:04.902Z,6.32
2023-10-03T18:00:11.864Z,7.53
2023-10-03T18:04:15.284Z,5.22
2023-10-03T18:06:17.072Z,6.40
2023-10-03T18:08:18.625Z,5.65
2023-10-03T18:10:23.757Z,7.75
2023-10-03T18:12:25.330Z,8.23
2023-10-03T18:14:26.785Z,6.90
2023-10-03T18:16:28.227Z,5.57
2023-10-03T18:18:30.746Z,4.60
2023-10-03T18:20:33.179Z,5.38
2023-10-03T18:22:34.818Z,4.80
2023-10-03T18:24:37.405Z,6.97
2023-10-03T18:26:39.179Z,6.35
2023-10-03T18:28:40.706Z,5.72
2023-10-03T18:30:45.094Z,8.98
2023-10-03T18:32:47.925Z,7.43
2023-10-03T18:34:49.465Z,7.53
2023-10-03T18:36:51.119Z,8.98
2023-10-03T18:38:52.626Z,5.53
2023-10-03T18:40:54.602Z,7.07
2023-10-03T18:42:56.093Z,5.90
2023-10-03T18:44:57.542Z,5.20
2023-10-03T18:46:59.020Z,7.57
2023-10-03T18:49:00.470Z,5.65
2023-10-03T18:51:03.726Z,4.80
2023-10-03T18:53:07.038Z,4.50
2023-10-03T18:55:13.043Z,7.00
2023-10-03T18:57:14.951Z,8.77
2023-10-03T18:59:16.902Z,6.13
2023-10-03T19:01:23.654Z,6.97
2023-10-03T19:03:31.499Z,6.13
2023-10-03T19:05:33.135Z,7.00
2023-10-03T19:07:41.006Z,5.32
2023-10-03T19:09:42.645Z,4.57
2023-10-03T19:11:46.634Z,4.97
2023-10-03T19:13:48.300Z,4.35
2023-10-03T19:15:50.279Z,5.90
2023-10-03T19:17:51.953Z,5.82
2023-10-03T19:19:57.584Z,6.82
2023-10-03T19:21:59.094Z,6.28
2023-10-03T19:24:00.550Z,6.22
2023-10-03T19:26:01.997Z,5.13
2023-10-03T19:28:04.099Z,5.65
2023-10-03T19:30:08.350Z,4.90
2023-10-03T19:32:10.450Z,4.60
2023-10-03T19:34:12.228Z,5.60
2023-10-03T19:36:14.896Z,6.03
2023-10-03T19:38:16.386Z,7.70
2023-10-03T19:40:19.139Z,5.15
2023-10-03T19:42:22.992Z,5.75
2023-10-03T19:44:24.520Z,6.03
2023-10-03T19:46:27.005Z,6.80
2023-10-03T19:48:28.772Z,4.85
2023-10-03T19:50:30.413Z,8.95
2023-10-03T19:52:33.226Z,7.93
2023-10-03T19:54:34.699Z,6.78
2023-10-03T19:56:37.041Z,5.15
2023-10-03T19:58:41.608Z,5.50
2023-10-03T20:00:43.941Z,6.07
2023-10-03T20:02:45.863Z,7.38
2023-10-03T20:04:47.606Z,7.95
2023-10-03T20:06:49.138Z,6.28
2023-10-03T20:08:50.704Z,6.15
2023-10-03T20:10:55.305Z,5.75
2023-10-03T20:12:56.777Z,8.90
2023-10-03T20:14:58.723Z,8.50
2023-10-03T20:17:00.676Z,7.35
2023-10-03T20:19:02.646Z,5.90
2023-10-03T20:21:05.176Z,4.57
2023-10-03T20:23:07.187Z,6.97
2023-10-03T20:25:10.238Z,4.90
2023-10-03T20:27:11.799Z,6.13
2023-10-03T20:29:13.234Z,8.55
2023-10-03T20:31:14.803Z,5.07
2023-10-03T20:33:16.322Z,8.25
2023-10-03T20:35:17.986Z,6.47
2023-10-03T20:37:19.545Z,5.97
2023-10-03T20:39:21.831Z,6.82
2023-10-03T20:41:23.408Z,6.65
2023-10-03T20:43:24.870Z,6.70
2023-10-03T20:45:26.348Z,5.97
2023-10-03T20:47:27.872Z,6.85
2023-10-03T20:49:29.379Z,7.82
2023-10-03T20:51:30.801Z,5.43
2023-10-03T20:53:32.260Z,6.70
2023-10-03T20:55:36.573Z,4.85
2023-10-03T20:57:38.644Z,7.03
2023-10-03T20:59:40.146Z,4.68
2023-10-03T21:01:42.877Z,8.73
2023-10-03T21:03:45.337Z,5.47
2023-10-03T21:05:47.354Z,6.10
2023-10-03T21:07:49.565Z,5.63
2023-10-03T21:09:51.724Z,6.78
2023-10-03T21:11:53.316Z,7.15
2023-10-03T21:13:54.981Z,5.03
2023-10-03T21:15:56.411Z,5.70
2023-10-03T21:17:58.030Z,6.30
2023-10-03T21:19:59.656Z,8.90
2023-10-03T21:22:01.200Z,6.95
2023-10-03T21:24:02.741Z,5.97
2023-10-03T21:26:10.856Z,4.72
2023-10-03T21:28:13.421Z,6.72
2023-10-03T21:30:14.944Z,8.40
2023-10-03T21:32:16.450Z,4.35
2023-10-03T21:34:17.929Z,5.32
2023-10-03T21:36:20.004Z,6.10
2023-10-03T21:38:22.546Z,8.07
2023-10-03T21:40:24.038Z,4.70
2023-10-03T21:42:28.999Z,5.45
2023-10-03T21:44:32.747Z,7.82
2023-10-03T21:46:34.255Z,6.82
2023-10-03T21:48:36.279Z,5.25
2023-10-03T21:50:38.179Z,5.80
2023-10-03T21:52:40.141Z,6.22
2023-10-03T21:54:41.540Z,5.25
2023-10-03T21:56:43.300Z,8.32
2023-10-03T21:58:44.854Z,5.90
2023-10-03T22:00:50.304Z,5.30
2023-10-03T22:02:56.226Z,4.75
2023-10-03T22:04:58.864Z,7.63
2023-10-03T22:07:00.764Z,6.63
2023-10-03T22:13:31.741Z,6.55
2023-10-03T22:15:33.274Z,8.07
2023-10-03T22:17:35.081Z,5.97
2023-10-03T22:19:36.611Z,8.00
2023-10-03T22:21:38.296Z,5.03
2023-10-03T22:23:40.712Z,6.25
2023-10-03T22:25:42.217Z,5.93
2023-10-03T22:27:43.676Z,5.93
2023-10-03T22:29:45.338Z,6.13
2023-10-03T22:31:46.838Z,5.82
2023-10-03T22:33:49.241Z,5.60
2023-10-03T22:35:51.103Z,7.38
2023-10-03T22:38:05.892Z,7.65
2023-10-03T22:40:11.617Z,6.43
2023-10-03T22:42:13.386Z,4.85
2023-10-03T22:44:14.856Z,12.32
2023-10-03T22:46:16.303Z,7.35
2023-10-03T22:48:18.150Z,6.43
2023-10-03T22:50:19.810Z,9.07
2023-10-03T22:52:21.942Z,5.90
2023-10-03T22:54:23.457Z,5.32
2023-10-03T22:56:26.740Z,4.97
2023-10-03T22:58:28.275Z,7.47
2023-10-03T23:00:30.358Z,6.53
2023-10-03T23:02:32.274Z,4.47
2023-10-03T23:04:33.835Z,5.65
2023-10-03T23:06:35.344Z,5.95
2023-10-03T23:08:36.959Z,10.57
2023-10-03T23:10:38.481Z,7.20
2023-10-03T23:12:40.372Z,5.85
2023-10-03T23:14:41.960Z,7.30
2023-10-03T23:16:43.434Z,5.35
2023-10-03T23:18:44.922Z,5.35
2023-10-03T23:20:47.363Z,5.65
2023-10-03T23:22:50.901Z,7.15
2023-10-03T23:24:53.351Z,9.10
2023-10-03T23:26:55.823Z,6.15
2023-10-03T23:28:57.587Z,7.60
2023-10-03T23:30:59.025Z,10.32
2023-10-03T23:33:00.522Z,7.53
2023-10-03T23:35:02.007Z,4.43
2023-10-03T23:37:04.431Z,6.43
2023-10-03T23:39:07.508Z,5.53
2023-10-03T23:41:10.741Z,6.35
2023-10-03T23:43:12.284Z,5.95
2023-10-03T23:45:15.152Z,7.85
2023-10-03T23:47:17.282Z,5.97
2023-10-03T23:49:18.730Z,5.10
2023-10-03T23:51:20.179Z,7.75
2023-10-03T23:53:22.945Z,5.35
2023-10-03T23:55:24.611Z,7.53
2023-10-03T23:57:29.590Z,7.70
2023-10-03T23:59:31.444Z,6.78
